sensor_id;sensor_type;location;lat;lon;timestamp;pressure;altitude;pressure_sealevel;temperature;humidity
45763;BME280;37512;52.408;13.356;2023-07-29T00:00:07;100378.41;;;16.89;100.00
45763;BME280;37512;52.408;13.356;2023-07-29T00:04:09;100379.78;;;16.70;100.00
45763;BME280;37512;52.408;13.356;2023-07-29T00:08:11;100380.16;;;16.72;100.00
45763;BME280;37512;52.408;13.356;2023-07-29T00:12:12;100377.25;;;16.86;100.00
45763;BME280;37512;52.408;13.356;2023-07-29T00:16:14;100372.47;;;16.83;100.00
45763;BME280;37512;52.408;13.356;2023-07-29T00:20:18;100375.75;;;16.71;100.00
45763;BME280;37512;52.408;13.356;2023-07-29T00:24:20;100366.59;;;16.67;100.00
45763;BME280;37512;52.408;13.356;2023-07-29T00:28:21;100369.34;;;16.74;100.00
45763;BME280;37512;52.408;13.356;2023-07-29T00:32:24;100369.44;;;16.63;100.00
45763;BME280;37512;52.408;13.356;2023-07-29T00:36:26;100363.44;;;16.61;100.00
45763;BME280;37512;52.408;13.356;2023-07-29T00:40:29;100368.03;;;16.41;100.00
45763;BME280;37512;52.408;13.356;2023-07-29T00:44:31;100376.78;;;16.46;100.00
45763;BME280;37512;52.408;13.356;2023-07-29T00:48:35;100368.00;;;16.44;100.00
45763;BME280;37512;52.408;13.356;2023-07-29T00:52:38;100361.00;;;16.22;100.00
45763;BME280;37512;52.408;13.356;2023-07-29T00:56:40;100365.00;;;16.21;100.00
45763;BME280;37512;52.408;13.356;2023-07-29T01:00:42;100354.09;;;16.34;100.00
45763;BME280;37512;52.408;13.356;2023-07-29T01:04:43;100347.03;;;16.15;100.00
45763;BME280;37512;52.408;13.356;2023-07-29T01:09:30;100331.47;;;16.14;100.00
45763;BME280;37512;52.408;13.356;2023-07-29T01:13:33;100325.16;;;16.02;100.00
45763;BME280;37512;52.408;13.356;2023-07-29T01:17:43;100327.16;;;16.02;100.00
45763;BME280;37512;52.408;13.356;2023-07-29T01:21:45;100321.06;;;16.14;100.00
45763;BME280;37512;52.408;13.356;2023-07-29T01:25:46;100307.56;;;16.02;100.00
45763;BME280;37512;52.408;13.356;2023-07-29T01:29:48;100317.47;;;16.10;100.00
45763;BME280;37512;52.408;13.356;2023-07-29T01:33:57;100319.63;;;15.92;100.00
45763;BME280;37512;52.408;13.356;2023-07-29T01:38:07;100321.16;;;16.03;100.00
45763;BME280;37512;52.408;13.356;2023-07-29T01:42:11;100316.94;;;15.81;100.00
45763;BME280;37512;52.408;13.356;2023-07-29T01:46:14;100328.41;;;15.97;100.00
45763;BME280;37512;52.408;13.356;2023-07-29T01:50:16;100326.06;;;15.85;100.00
45763;BME280;37512;52.408;13.356;2023-07-29T01:54:17;100331.72;;;15.78;100.00
45763;BME280;37512;52.408;13.356;2023-07-29T01:58:19;100336.06;;;15.86;100.00
45763;BME280;37512;52.408;13.356;2023-07-29T02:02:21;100329.69;;;15.82;100.00
45763;BME280;37512;52.408;13.356;2023-07-29T02:06:22;100328.47;;;15.90;100.00
45763;BME280;37512;52.408;13.356;2023-07-29T02:10:24;100330.22;;;15.62;100.00
45763;BME280;37512;52.408;13.356;2023-07-29T02:14:26;100326.19;;;15.63;100.00
45763;BME280;37512;52.408;13.356;2023-07-29T02:18:27;100325.38;;;15.66;100.00
45763;BME280;37512;52.408;13.356;2023-07-29T02:22:29;100342.97;;;15.63;100.00
45763;BME280;37512;52.408;13.356;2023-07-29T02:26:31;100337.38;;;15.63;100.00
45763;BME280;37512;52.408;13.356;2023-07-29T02:30:32;100326.25;;;15.56;100.00
45763;BME280;37512;52.408;13.356;2023-07-29T02:34:34;100325.47;;;15.48;100.00
45763;BME280;37512;52.408;13.356;2023-07-29T02:38:35;100324.69;;;15.48;100.00
45763;BME280;37512;52.408;13.356;2023-07-29T02:42:37;100327.41;;;15.62;100.00
45763;BME280;37512;52.408;13.356;2023-07-29T02:46:39;100325.41;;;15.59;100.00
45763;BME280;37512;52.408;13.356;2023-07-29T02:50:41;100327.81;;;15.61;100.00
45763;BME280;37512;52.408;13.356;2023-07-29T02:54:42;100331.00;;;15.59;100.00
45763;BME280;37512;52.408;13.356;2023-07-29T02:58:44;100329.78;;;15.64;100.00
45763;BME280;37512;52.408;13.356;2023-07-29T03:02:46;100334.25;;;15.58;100.00
45763;BME280;37512;52.408;13.356;2023-07-29T03:06:47;100337.41;;;15.60;100.00
45763;BME280;37512;52.408;13.356;2023-07-29T03:10:49;100333.81;;;15.59;100.00
45763;BME280;37512;52.408;13.356;2023-07-29T03:14:51;100329.78;;;15.64;100.00
45763;BME280;37512;52.408;13.356;2023-07-29T03:18:52;100321.84;;;15.59;100.00
45763;BME280;37512;52.408;13.356;2023-07-29T03:22:54;100337.50;;;15.45;100.00
45763;BME280;37512;52.408;13.356;2023-07-29T03:26:55;100331.06;;;15.52;100.00
45763;BME280;37512;52.408;13.356;2023-07-29T03:30:57;100331.09;;;15.45;100.00
45763;BME280;37512;52.408;13.356;2023-07-29T03:34:59;100333.03;;;15.55;100.00
45763;BME280;37512;52.408;13.356;2023-07-29T03:39:00;100333.47;;;15.54;100.00
45763;BME280;37512;52.408;13.356;2023-07-29T03:43:04;100320.31;;;15.43;100.00
45763;BME280;37512;52.408;13.356;2023-07-29T03:47:06;100335.47;;;15.50;100.00
45763;BME280;37512;52.408;13.356;2023-07-29T03:51:08;100338.22;;;15.60;100.00
45763;BME280;37512;52.408;13.356;2023-07-29T03:55:09;100320.59;;;15.71;100.00
45763;BME280;37512;52.408;13.356;2023-07-29T03:59:11;100323.41;;;15.63;100.00
45763;BME280;37512;52.408;13.356;2023-07-29T04:03:13;100322.13;;;15.79;100.00
45763;BME280;37512;52.408;13.356;2023-07-29T04:07:15;100308.94;;;15.83;100.00
45763;BME280;37512;52.408;13.356;2023-07-29T04:11:16;100306.81;;;15.98;100.00
45763;BME280;37512;52.408;13.356;2023-07-29T04:15:18;100311.78;;;15.72;100.00
45763;BME280;37512;52.408;13.356;2023-07-29T04:19:20;100305.56;;;16.02;100.00
45763;BME280;37512;52.408;13.356;2023-07-29T04:23:21;100298.00;;;15.99;100.00
45763;BME280;37512;52.408;13.356;2023-07-29T04:27:23;100317.13;;;16.08;100.00
45763;BME280;37512;52.408;13.356;2023-07-29T04:31:25;100306.72;;;16.08;100.00
45763;BME280;37512;52.408;13.356;2023-07-29T04:35:26;100320.06;;;15.90;100.00
45763;BME280;37512;52.408;13.356;2023-07-29T04:39:28;100317.53;;;16.03;100.00
45763;BME280;37512;52.408;13.356;2023-07-29T04:43:31;100321.91;;;16.07;100.00
45763;BME280;37512;52.408;13.356;2023-07-29T04:47:33;100319.50;;;16.09;100.00
45763;BME280;37512;52.408;13.356;2023-07-29T04:51:34;100307.59;;;15.98;100.00
45763;BME280;37512;52.408;13.356;2023-07-29T04:55:36;100311.16;;;16.06;100.00
45763;BME280;37512;52.408;13.356;2023-07-29T04:59:37;100323.78;;;16.21;100.00
45763;BME280;37512;52.408;13.356;2023-07-29T05:03:39;100313.03;;;16.20;100.00
45763;BME280;37512;52.408;13.356;2023-07-29T05:07:41;100311.25;;;16.40;100.00
45763;BME280;37512;52.408;13.356;2023-07-29T05:11:43;100307.28;;;16.34;100.00
45763;BME280;37512;52.408;13.356;2023-07-29T05:15:47;100307.75;;;16.67;100.00
45763;BME280;37512;52.408;13.356;2023-07-29T05:19:49;100295.81;;;16.63;100.00
45763;BME280;37512;52.408;13.356;2023-07-29T05:23:51;100298.28;;;16.91;100.00
45763;BME280;37512;52.408;13.356;2023-07-29T05:27:52;100313.06;;;16.96;100.00
45763;BME280;37512;52.408;13.356;2023-07-29T05:31:54;100308.59;;;17.02;100.00
45763;BME280;37512;52.408;13.356;2023-07-29T05:35:55;100313.47;;;16.94;100.00
45763;BME280;37512;52.408;13.356;2023-07-29T05:39:57;100320.09;;;17.11;100.00
45763;BME280;37512;52.408;13.356;2023-07-29T05:43:59;100318.22;;;17.31;100.00
45763;BME280;37512;52.408;13.356;2023-07-29T05:48:01;100307.84;;;17.28;100.00
45763;BME280;37512;52.408;13.356;2023-07-29T05:52:02;100309.84;;;17.59;100.00
45763;BME280;37512;52.408;13.356;2023-07-29T05:56:04;100304.81;;;17.73;100.00
45763;BME280;37512;52.408;13.356;2023-07-29T06:00:06;100297.78;;;17.89;100.00
45763;BME280;37512;52.408;13.356;2023-07-29T06:04:07;100284.78;;;17.98;100.00
45763;BME280;37512;52.408;13.356;2023-07-29T06:08:09;100277.22;;;17.95;100.00
45763;BME280;37512;52.408;13.356;2023-07-29T06:12:13;100279.50;;;18.04;100.00
45763;BME280;37512;52.408;13.356;2023-07-29T06:16:14;100272.00;;;18.17;100.00
45763;BME280;37512;52.408;13.356;2023-07-29T06:20:16;100265.25;;;18.38;100.00
45763;BME280;37512;52.408;13.356;2023-07-29T06:24:17;100268.19;;;18.51;100.00
45763;BME280;37512;52.408;13.356;2023-07-29T06:28:19;100266.91;;;18.56;100.00
45763;BME280;37512;52.408;13.356;2023-07-29T06:32:20;100267.69;;;18.80;100.00
45763;BME280;37512;52.408;13.356;2023-07-29T06:36:22;100275.97;;;18.87;100.00
45763;BME280;37512;52.408;13.356;2023-07-29T06:40:24;100278.69;;;19.11;100.00
45763;BME280;37512;52.408;13.356;2023-07-29T06:44:26;100280.13;;;19.19;100.00
45763;BME280;37512;52.408;13.356;2023-07-29T06:48:27;100288.88;;;19.05;100.00
45763;BME280;37512;52.408;13.356;2023-07-29T06:52:29;100286.47;;;19.23;100.00
45763;BME280;37512;52.408;13.356;2023-07-29T06:56:31;100272.88;;;19.54;100.00
45763;BME280;37512;52.408;13.356;2023-07-29T07:00:32;100283.94;;;19.45;100.00
45763;BME280;37512;52.408;13.356;2023-07-29T07:04:34;100283.69;;;19.39;100.00
45763;BME280;37512;52.408;13.356;2023-07-29T07:08:35;100281.81;;;19.69;100.00
45763;BME280;37512;52.408;13.356;2023-07-29T07:12:37;100276.91;;;20.06;100.00
45763;BME280;37512;52.408;13.356;2023-07-29T07:16:39;100283.69;;;19.92;100.00
45763;BME280;37512;52.408;13.356;2023-07-29T07:20:41;100276.81;;;20.10;100.00
45763;BME280;37512;52.408;13.356;2023-07-29T07:24:44;100284.16;;;20.36;100.00
45763;BME280;37512;52.408;13.356;2023-07-29T07:28:45;100291.34;;;20.08;100.00
45763;BME280;37512;52.408;13.356;2023-07-29T07:32:47;100280.59;;;20.19;100.00
45763;BME280;37512;52.408;13.356;2023-07-29T07:36:49;100267.28;;;20.20;100.00
45763;BME280;37512;52.408;13.356;2023-07-29T07:40:54;100273.72;;;20.37;100.00
45763;BME280;37512;52.408;13.356;2023-07-29T07:44:57;100277.88;;;20.61;100.00
45763;BME280;37512;52.408;13.356;2023-07-29T07:48:58;100266.72;;;20.58;100.00
45763;BME280;37512;52.408;13.356;2023-07-29T07:53:00;100245.53;;;20.66;100.00
45763;BME280;37512;52.408;13.356;2023-07-29T07:57:01;100251.13;;;20.95;100.00
45763;BME280;37512;52.408;13.356;2023-07-29T08:01:04;100259.03;;;20.87;100.00
45763;BME280;37512;52.408;13.356;2023-07-29T08:05:07;100257.72;;;21.18;100.00
45763;BME280;37512;52.408;13.356;2023-07-29T08:09:10;100251.47;;;20.55;100.00
45763;BME280;37512;52.408;13.356;2023-07-29T08:13:11;100257.22;;;20.81;100.00
45763;BME280;37512;52.408;13.356;2023-07-29T08:17:13;100243.03;;;20.97;100.00
45763;BME280;37512;52.408;13.356;2023-07-29T08:21:14;100245.22;;;21.57;100.00
45763;BME280;37512;52.408;13.356;2023-07-29T08:25:16;100237.78;;;21.63;100.00
45763;BME280;37512;52.408;13.356;2023-07-29T08:29:18;100234.53;;;21.65;100.00
45763;BME280;37512;52.408;13.356;2023-07-29T08:33:19;100229.84;;;21.20;100.00
45763;BME280;37512;52.408;13.356;2023-07-29T08:37:21;100221.56;;;21.89;100.00
45763;BME280;37512;52.408;13.356;2023-07-29T08:41:29;100224.97;;;21.97;100.00
45763;BME280;37512;52.408;13.356;2023-07-29T08:45:34;100224.06;;;22.35;100.00
45763;BME280;37512;52.408;13.356;2023-07-29T08:49:38;100217.63;;;22.34;100.00
45763;BME280;37512;52.408;13.356;2023-07-29T08:53:40;100221.06;;;22.17;100.00
45763;BME280;37512;52.408;13.356;2023-07-29T08:57:41;100214.94;;;22.31;100.00
45763;BME280;37512;52.408;13.356;2023-07-29T09:01:43;100219.44;;;21.93;100.00
45763;BME280;37512;52.408;13.356;2023-07-29T09:05:45;100222.25;;;21.93;100.00
45763;BME280;37512;52.408;13.356;2023-07-29T09:09:47;100210.94;;;21.93;100.00
45763;BME280;37512;52.408;13.356;2023-07-29T09:13:49;100212.13;;;22.75;100.00
45763;BME280;37512;52.408;13.356;2023-07-29T09:17:52;100205.06;;;22.58;100.00
45763;BME280;37512;52.408;13.356;2023-07-29T09:21:53;100205.41;;;22.82;100.00
45763;BME280;37512;52.408;13.356;2023-07-29T09:26:02;100205.59;;;22.87;100.00
45763;BME280;37512;52.408;13.356;2023-07-29T09:30:04;100196.19;;;22.68;100.00
45763;BME280;37512;52.408;13.356;2023-07-29T09:34:06;100189.16;;;22.51;100.00
45763;BME280;37512;52.408;13.356;2023-07-29T09:38:08;100181.44;;;22.73;100.00
45763;BME280;37512;52.408;13.356;2023-07-29T09:42:16;100182.56;;;22.76;100.00
45763;BME280;37512;52.408;13.356;2023-07-29T09:46:18;100179.31;;;23.09;100.00
45763;BME280;37512;52.408;13.356;2023-07-29T09:50:26;100180.47;;;23.21;100.00
45763;BME280;37512;52.408;13.356;2023-07-29T09:54:30;100176.38;;;22.90;100.00
45763;BME280;37512;52.408;13.356;2023-07-29T09:58:32;100170.53;;;23.56;100.00
45763;BME280;37512;52.408;13.356;2023-07-29T10:02:35;100176.41;;;23.80;100.00
45763;BME280;37512;52.408;13.356;2023-07-29T10:06:37;100169.44;;;23.54;100.00
45763;BME280;37512;52.408;13.356;2023-07-29T10:10:42;100154.97;;;22.89;100.00
45763;BME280;37512;52.408;13.356;2023-07-29T10:14:45;100151.81;;;23.09;100.00
45763;BME280;37512;52.408;13.356;2023-07-29T10:18:50;100143.91;;;23.45;100.00
45763;BME280;37512;52.408;13.356;2023-07-29T10:22:56;100152.72;;;23.56;100.00
45763;BME280;37512;52.408;13.356;2023-07-29T10:27:01;100146.22;;;23.28;100.00
45763;BME280;37512;52.408;13.356;2023-07-29T10:31:03;100134.91;;;23.37;100.00
45763;BME280;37512;52.408;13.356;2023-07-29T10:35:06;100135.72;;;23.47;100.00
45763;BME280;37512;52.408;13.356;2023-07-29T10:39:08;100133.78;;;23.93;100.00
45763;BME280;37512;52.408;13.356;2023-07-29T10:43:12;100133.44;;;23.82;100.00
45763;BME280;37512;52.408;13.356;2023-07-29T10:55:35;100107.28;;;23.69;100.00
45763;BME280;37512;52.408;13.356;2023-07-29T10:59:40;100103.97;;;23.52;100.00
45763;BME280;37512;52.408;13.356;2023-07-29T11:04:01;100096.81;;;23.20;100.00
45763;BME280;37512;52.408;13.356;2023-07-29T11:08:26;100101.97;;;23.12;100.00
45763;BME280;37512;52.408;13.356;2023-07-29T11:16:49;70141.72;;;-146.77;100.00
45763;BME280;37512;52.408;13.356;2023-07-29T11:20:53;70141.72;;;-146.77;100.00
45763;BME280;37512;52.408;13.356;2023-07-29T11:25:16;70141.72;;;-146.77;100.00
45763;BME280;37512;52.408;13.356;2023-07-29T11:29:39;70141.72;;;-146.77;100.00
45763;BME280;37512;52.408;13.356;2023-07-29T11:34:06;70141.72;;;-146.77;100.00
45763;BME280;37512;52.408;13.356;2023-07-29T11:38:28;70141.72;;;-146.77;100.00
45763;BME280;37512;52.408;13.356;2023-07-29T11:42:53;70141.72;;;-146.77;100.00
45763;BME280;37512;52.408;13.356;2023-07-29T11:47:16;70141.72;;;-146.77;100.00
45763;BME280;37512;52.408;13.356;2023-07-29T11:52:16;70141.72;;;-146.77;100.00
45763;BME280;37512;52.408;13.356;2023-07-29T11:57:19;70141.72;;;-146.77;100.00
45763;BME280;37512;52.408;13.356;2023-07-29T12:02:20;70141.72;;;-146.77;100.00
45763;BME280;37512;52.408;13.356;2023-07-29T12:07:22;70141.72;;;-146.77;100.00
45763;BME280;37512;52.408;13.356;2023-07-29T12:12:22;70141.72;;;-146.77;100.00
45763;BME280;37512;52.408;13.356;2023-07-29T12:17:22;70141.72;;;-146.77;100.00
45763;BME280;37512;52.408;13.356;2023-07-29T12:22:23;70141.72;;;-146.77;100.00
45763;BME280;37512;52.408;13.356;2023-07-29T12:27:27;70141.72;;;-146.77;100.00
45763;BME280;37512;52.408;13.356;2023-07-29T12:32:30;70141.72;;;-146.77;100.00
45763;BME280;37512;52.408;13.356;2023-07-29T12:36:43;70141.72;;;-146.77;100.00
45763;BME280;37512;52.408;13.356;2023-07-29T12:40:45;70141.72;;;-146.77;100.00
45763;BME280;37512;52.408;13.356;2023-07-29T12:44:46;100097.25;;;20.81;100.00
45763;BME280;37512;52.408;13.356;2023-07-29T12:48:47;70141.72;;;-146.77;100.00
45763;BME280;37512;52.408;13.356;2023-07-29T12:52:49;100076.09;;;20.35;100.00
45763;BME280;37512;52.408;13.356;2023-07-29T12:56:51;70141.72;;;-146.77;100.00
45763;BME280;37512;52.408;13.356;2023-07-29T13:00:52;100076.84;;;21.03;100.00
45763;BME280;37512;52.408;13.356;2023-07-29T13:04:55;100073.00;;;20.16;100.00
45763;BME280;37512;52.408;13.356;2023-07-29T13:08:57;100073.28;;;21.37;100.00
45763;BME280;37512;52.408;13.356;2023-07-29T13:12:58;70141.72;;;-146.77;100.00
45763;BME280;37512;52.408;13.356;2023-07-29T13:17:00;70141.72;;;-146.77;100.00
45763;BME280;37512;52.408;13.356;2023-07-29T13:21:02;70141.72;;;-146.77;100.00
45763;BME280;37512;52.408;13.356;2023-07-29T13:25:04;70141.72;;;-146.77;100.00
45763;BME280;37512;52.408;13.356;2023-07-29T13:29:05;70141.72;;;-146.77;100.00
45763;BME280;37512;52.408;13.356;2023-07-29T13:33:10;70141.72;;;-146.77;100.00
45763;BME280;37512;52.408;13.356;2023-07-29T13:37:11;70141.72;;;-146.77;100.00
45763;BME280;37512;52.408;13.356;2023-07-29T13:41:13;100064.50;;;23.85;100.00
45763;BME280;37512;52.408;13.356;2023-07-29T13:45:15;70141.72;;;-146.77;100.00
45763;BME280;37512;52.408;13.356;2023-07-29T13:49:16;70141.72;;;-146.77;100.00
45763;BME280;37512;52.408;13.356;2023-07-29T13:53:18;70141.72;;;-146.77;100.00
45763;BME280;37512;52.408;13.356;2023-07-29T13:57:20;70141.72;;;-146.77;100.00
45763;BME280;37512;52.408;13.356;2023-07-29T14:01:21;70141.72;;;-146.77;100.00
45763;BME280;37512;52.408;13.356;2023-07-29T14:05:23;70141.72;;;-146.77;100.00
45763;BME280;37512;52.408;13.356;2023-07-29T14:09:25;70141.72;;;-146.77;100.00
45763;BME280;37512;52.408;13.356;2023-07-29T14:13:27;70141.72;;;-146.77;100.00
45763;BME280;37512;52.408;13.356;2023-07-29T14:17:28;70141.72;;;-146.77;100.00
45763;BME280;37512;52.408;13.356;2023-07-29T14:21:30;70141.72;;;-146.77;100.00
45763;BME280;37512;52.408;13.356;2023-07-29T14:25:31;70141.72;;;-146.77;100.00
45763;BME280;37512;52.408;13.356;2023-07-29T14:29:33;70141.72;;;-146.77;100.00
45763;BME280;37512;52.408;13.356;2023-07-29T14:33:35;70141.72;;;-146.77;100.00
45763;BME280;37512;52.408;13.356;2023-07-29T14:37:36;70141.72;;;-146.77;100.00
45763;BME280;37512;52.408;13.356;2023-07-29T14:41:39;70141.72;;;-146.77;100.00
45763;BME280;37512;52.408;13.356;2023-07-29T14:45:40;70141.72;;;-146.77;100.00
45763;BME280;37512;52.408;13.356;2023-07-29T14:49:42;70141.72;;;-146.77;100.00
45763;BME280;37512;52.408;13.356;2023-07-29T14:53:43;70141.72;;;-146.77;100.00
45763;BME280;37512;52.408;13.356;2023-07-29T14:57:45;70141.72;;;-146.77;100.00
45763;BME280;37512;52.408;13.356;2023-07-29T15:01:47;70141.72;;;-146.77;100.00
45763;BME280;37512;52.408;13.356;2023-07-29T15:05:49;70141.72;;;-146.77;100.00
45763;BME280;37512;52.408;13.356;2023-07-29T15:09:50;70141.72;;;-146.77;100.00
45763;BME280;37512;52.408;13.356;2023-07-29T15:13:52;70141.72;;;-146.77;100.00
45763;BME280;37512;52.408;13.356;2023-07-29T15:17:53;70141.72;;;-146.77;100.00
45763;BME280;37512;52.408;13.356;2023-07-29T15:21:55;70141.72;;;-146.77;100.00
45763;BME280;37512;52.408;13.356;2023-07-29T15:25:57;70141.72;;;-146.77;100.00
45763;BME280;37512;52.408;13.356;2023-07-29T15:29:58;70141.72;;;-146.77;100.00
45763;BME280;37512;52.408;13.356;2023-07-29T15:34:00;70141.72;;;-146.77;100.00
45763;BME280;37512;52.408;13.356;2023-07-29T15:38:01;70141.72;;;-146.77;100.00
45763;BME280;37512;52.408;13.356;2023-07-29T15:42:03;70141.72;;;-146.77;100.00
45763;BME280;37512;52.408;13.356;2023-07-29T15:46:05;70141.72;;;-146.77;100.00
45763;BME280;37512;52.408;13.356;2023-07-29T15:50:06;70141.72;;;-146.77;100.00
45763;BME280;37512;52.408;13.356;2023-07-29T15:54:08;70141.72;;;-146.77;100.00
45763;BME280;37512;52.408;13.356;2023-07-29T15:58:10;70141.72;;;-146.77;100.00
45763;BME280;37512;52.408;13.356;2023-07-29T16:02:11;70141.72;;;-146.77;100.00
45763;BME280;37512;52.408;13.356;2023-07-29T16:06:13;70141.72;;;-146.77;100.00
45763;BME280;37512;52.408;13.356;2023-07-29T16:10:14;70141.72;;;-146.77;100.00
45763;BME280;37512;52.408;13.356;2023-07-29T16:14:16;70141.72;;;-146.77;100.00
45763;BME280;37512;52.408;13.356;2023-07-29T16:18:17;70141.72;;;-146.77;100.00
45763;BME280;37512;52.408;13.356;2023-07-29T16:22:19;70141.72;;;-146.77;100.00
45763;BME280;37512;52.408;13.356;2023-07-29T16:26:21;70141.72;;;-146.77;100.00
45763;BME280;37512;52.408;13.356;2023-07-29T16:30:22;70141.72;;;-146.77;100.00
45763;BME280;37512;52.408;13.356;2023-07-29T16:34:24;70141.72;;;-146.77;100.00
45763;BME280;37512;52.408;13.356;2023-07-29T16:38:26;70141.72;;;-146.77;100.00
45763;BME280;37512;52.408;13.356;2023-07-29T16:42:28;70141.72;;;-146.77;100.00
45763;BME280;37512;52.408;13.356;2023-07-29T16:46:30;70141.72;;;-146.77;100.00
45763;BME280;37512;52.408;13.356;2023-07-29T16:50:31;70141.72;;;-146.77;100.00
45763;BME280;37512;52.408;13.356;2023-07-29T16:54:33;70141.72;;;-146.77;100.00
45763;BME280;37512;52.408;13.356;2023-07-29T16:58:35;70141.72;;;-146.77;100.00
45763;BME280;37512;52.408;13.356;2023-07-29T17:02:36;70141.72;;;-146.77;100.00
45763;BME280;37512;52.408;13.356;2023-07-29T17:06:38;70141.72;;;-146.77;100.00
45763;BME280;37512;52.408;13.356;2023-07-29T17:10:40;70141.72;;;-146.77;100.00
45763;BME280;37512;52.408;13.356;2023-07-29T17:14:42;70141.72;;;-146.77;100.00
45763;BME280;37512;52.408;13.356;2023-07-29T17:18:43;70141.72;;;-146.77;100.00
45763;BME280;37512;52.408;13.356;2023-07-29T17:22:45;70141.72;;;-146.77;100.00
45763;BME280;37512;52.408;13.356;2023-07-29T17:26:46;70141.72;;;-146.77;100.00
45763;BME280;37512;52.408;13.356;2023-07-29T17:30:51;70141.72;;;-146.77;100.00
45763;BME280;37512;52.408;13.356;2023-07-29T17:34:52;70141.72;;;-146.77;100.00
45763;BME280;37512;52.408;13.356;2023-07-29T17:38:54;70141.72;;;-146.77;100.00
45763;BME280;37512;52.408;13.356;2023-07-29T17:42:55;70141.72;;;-146.77;100.00
45763;BME280;37512;52.408;13.356;2023-07-29T17:46:57;70141.72;;;-146.77;100.00
45763;BME280;37512;52.408;13.356;2023-07-29T17:50:58;70141.72;;;-146.77;100.00
45763;BME280;37512;52.408;13.356;2023-07-29T17:55:00;70141.72;;;-146.77;100.00
45763;BME280;37512;52.408;13.356;2023-07-29T17:59:01;70141.72;;;-146.77;100.00
45763;BME280;37512;52.408;13.356;2023-07-29T18:03:03;70141.72;;;-146.77;100.00
45763;BME280;37512;52.408;13.356;2023-07-29T18:07:05;70141.72;;;-146.77;100.00
45763;BME280;37512;52.408;13.356;2023-07-29T18:11:07;70141.72;;;-146.77;100.00
45763;BME280;37512;52.408;13.356;2023-07-29T18:15:09;70141.72;;;-146.77;100.00
45763;BME280;37512;52.408;13.356;2023-07-29T18:19:11;70141.72;;;-146.77;100.00
45763;BME280;37512;52.408;13.356;2023-07-29T18:23:13;70141.72;;;-146.77;100.00
45763;BME280;37512;52.408;13.356;2023-07-29T18:27:16;70141.72;;;-146.77;100.00
45763;BME280;37512;52.408;13.356;2023-07-29T18:31:18;70141.72;;;-146.77;100.00
45763;BME280;37512;52.408;13.356;2023-07-29T18:35:19;70141.72;;;-146.77;100.00
45763;BME280;37512;52.408;13.356;2023-07-29T18:39:22;70141.72;;;-146.77;100.00
45763;BME280;37512;52.408;13.356;2023-07-29T18:43:24;70141.72;;;-146.77;100.00
45763;BME280;37512;52.408;13.356;2023-07-29T18:47:26;70141.72;;;-146.77;100.00
45763;BME280;37512;52.408;13.356;2023-07-29T18:51:27;70141.72;;;-146.77;100.00
45763;BME280;37512;52.408;13.356;2023-07-29T18:55:29;70141.72;;;-146.77;100.00
45763;BME280;37512;52.408;13.356;2023-07-29T18:59:30;70141.72;;;-146.77;100.00
45763;BME280;37512;52.408;13.356;2023-07-29T19:03:32;70141.72;;;-146.77;100.00
45763;BME280;37512;52.408;13.356;2023-07-29T19:07:34;70141.72;;;-146.77;100.00
45763;BME280;37512;52.408;13.356;2023-07-29T19:11:36;70141.72;;;-146.77;100.00
45763;BME280;37512;52.408;13.356;2023-07-29T19:15:38;70141.72;;;-146.77;100.00
45763;BME280;37512;52.408;13.356;2023-07-29T19:19:41;70141.72;;;-146.77;100.00
45763;BME280;37512;52.408;13.356;2023-07-29T19:23:42;70141.72;;;-146.77;100.00
45763;BME280;37512;52.408;13.356;2023-07-29T19:27:44;70141.72;;;-146.77;100.00
45763;BME280;37512;52.408;13.356;2023-07-29T19:31:46;70141.72;;;-146.77;100.00
45763;BME280;37512;52.408;13.356;2023-07-29T19:35:53;70141.72;;;-146.77;100.00
45763;BME280;37512;52.408;13.356;2023-07-29T19:39:55;70141.72;;;-146.77;100.00
45763;BME280;37512;52.408;13.356;2023-07-29T19:43:57;70141.72;;;-146.77;100.00
45763;BME280;37512;52.408;13.356;2023-07-29T19:48:17;70141.72;;;-146.77;100.00
45763;BME280;37512;52.408;13.356;2023-07-29T19:52:18;70141.72;;;-146.77;100.00
45763;BME280;37512;52.408;13.356;2023-07-29T19:56:20;70141.72;;;-146.77;100.00
45763;BME280;37512;52.408;13.356;2023-07-29T20:00:21;70141.72;;;-146.77;100.00
45763;BME280;37512;52.408;13.356;2023-07-29T20:04:23;70141.72;;;-146.77;100.00
45763;BME280;37512;52.408;13.356;2023-07-29T20:08:25;70141.72;;;-146.77;100.00
45763;BME280;37512;52.408;13.356;2023-07-29T20:12:26;70141.72;;;-146.77;100.00
45763;BME280;37512;52.408;13.356;2023-07-29T20:16:28;70141.72;;;-146.77;100.00
45763;BME280;37512;52.408;13.356;2023-07-29T20:20:30;70141.72;;;-146.77;100.00
45763;BME280;37512;52.408;13.356;2023-07-29T20:24:31;70141.72;;;-146.77;100.00
45763;BME280;37512;52.408;13.356;2023-07-29T20:28:33;70141.72;;;-146.77;100.00
45763;BME280;37512;52.408;13.356;2023-07-29T20:32:35;70141.72;;;-146.77;100.00
45763;BME280;37512;52.408;13.356;2023-07-29T20:36:38;70141.72;;;-146.77;100.00
45763;BME280;37512;52.408;13.356;2023-07-29T20:40:39;70141.72;;;-146.77;100.00
45763;BME280;37512;52.408;13.356;2023-07-29T20:44:41;70141.72;;;-146.77;100.00
45763;BME280;37512;52.408;13.356;2023-07-29T20:48:42;70141.72;;;-146.77;100.00